Time;durP1;ratioP1;P1;durP2;ratioP2;P2;SDS_P1;SDS_P2;PMS_P1;PMS_P2;Temp;Humidity;BMP_temperature;BMP_pressure;BME280_temperature;BME280_humidity;BME280_pressure;Samples;Min_cycle;Max_cycle;Signal;HPM_P1;HPM_P2
2023/05/18 00:00:45;;;;;;;1999.90;999.90;;;4.30;91.00;;;;;;5025932;28;20025;-88
2023/05/18 00:03:11;;;;;;;1999.90;999.90;;;4.30;91.10;;;;;;5027597;28;20044;-86
2023/05/18 00:05:37;;;;;;;1999.90;999.90;;;4.30;91.20;;;;;;5033129;28;20155;-87
2023/05/18 00:08:08;;;;;;;1999.90;999.90;;;4.30;91.30;;;;;;5037317;28;20025;-88
2023/05/18 00:10:37;;;;;;;1999.90;999.90;;;4.30;91.60;;;;;;5037963;28;20026;-86
2023/05/18 00:13:07;;;;;;;1999.90;999.90;;;4.30;91.50;;;;;;5030234;28;20017;-88
2023/05/18 00:15:33;;;;;;;1999.90;999.90;;;4.30;91.80;;;;;;5033160;28;20036;-88
2023/05/18 00:17:58;;;;;;;1999.90;999.90;;;4.30;91.70;;;;;;5032784;28;20038;-88
2023/05/18 00:20:25;;;;;;;1999.90;999.90;;;4.20;91.60;;;;;;5033037;28;20080;-87
2023/05/18 00:22:51;;;;;;;1999.90;999.90;;;4.30;91.90;;;;;;5027956;28;20057;-87
2023/05/18 00:25:17;;;;;;;1999.90;999.90;;;4.20;91.70;;;;;;5030103;28;20746;-88
2023/05/18 00:27:43;;;;;;;1999.90;999.90;;;4.20;92.00;;;;;;5033837;28;20045;-86
2023/05/18 00:30:10;;;;;;;1999.90;999.90;;;4.10;92.00;;;;;;5030196;28;20104;-88
2023/05/18 00:32:36;;;;;;;1999.90;999.90;;;4.10;92.10;;;;;;5019029;28;20026;-85
2023/05/18 00:35:02;;;;;;;1999.90;999.90;;;4.10;92.10;;;;;;5036309;28;20458;-87
2023/05/18 00:37:28;;;;;;;1999.90;999.90;;;4.10;92.30;;;;;;5028622;28;20411;-85
2023/05/18 00:39:54;;;;;;;1999.90;999.90;;;4.10;92.30;;;;;;5018935;28;20040;-86
2023/05/18 00:42:20;;;;;;;1999.90;999.90;;;4.10;92.30;;;;;;5028741;28;20034;-88
2023/05/18 00:44:45;;;;;;;1999.90;999.90;;;4.00;92.40;;;;;;5023891;28;20685;-90
2023/05/18 00:47:11;;;;;;;1999.90;999.90;;;4.00;92.60;;;;;;5020785;28;20033;-89
2023/05/18 00:49:36;;;;;;;1999.90;999.90;;;4.10;92.70;;;;;;5023874;28;20033;-85
2023/05/18 00:52:08;;;;;;;1999.90;999.90;;;4.10;92.80;;;;;;5023483;28;20030;-86
2023/05/18 00:54:34;;;;;;;1999.90;999.90;;;4.00;92.60;;;;;;5028011;28;20042;-88
2023/05/18 00:57:00;;;;;;;1999.90;999.90;;;4.10;92.90;;;;;;5030543;28;20048;-87
2023/05/18 00:59:31;;;;;;;1999.90;999.90;;;4.00;92.80;;;;;;5022114;28;20644;-88
2023/05/18 01:01:57;;;;;;;1999.90;999.90;;;4.00;92.80;;;;;;5021387;28;20108;-87
2023/05/18 01:04:24;;;;;;;1999.90;999.90;;;3.80;93.00;;;;;;5023081;28;20057;-87
2023/05/18 01:06:55;;;;;;;1999.90;999.90;;;3.90;93.10;;;;;;5029733;28;20022;-87
2023/05/18 01:09:41;;;;;;;1999.90;999.90;;;3.80;93.00;;;;;;5031586;28;20041;-87
2023/05/18 01:12:21;;;;;;;1999.90;999.90;;;3.80;93.20;;;;;;5028922;28;20083;-86
2023/05/18 01:14:51;;;;;;;1999.90;999.90;;;3.90;93.30;;;;;;5030881;28;20026;-86
2023/05/18 01:17:42;;;;;;;1999.90;999.90;;;3.90;93.50;;;;;;5033804;28;20029;-84
2023/05/18 01:20:44;;;;;;;1999.90;999.90;;;3.80;93.20;;;;;;5023464;28;20136;-91
2023/05/18 01:23:35;;;;;;;1999.90;999.90;;;3.90;93.40;;;;;;5046612;28;20033;-87
2023/05/18 01:26:01;;;;;;;1999.90;999.90;;;4.00;93.20;;;;;;5024782;28;20021;-86
2023/05/18 01:28:31;;;;;;;1999.90;999.90;;;4.00;93.30;;;;;;5032671;28;20045;-84
2023/05/18 01:30:57;;;;;;;1999.90;999.90;;;3.90;93.20;;;;;;5029399;28;20248;-85
2023/05/18 01:33:25;;;;;;;1999.90;999.90;;;4.00;93.20;;;;;;5033298;28;20029;-87
2023/05/18 01:35:54;;;;;;;1999.90;999.90;;;3.90;93.00;;;;;;5031298;28;20022;-86
2023/05/18 01:38:23;;;;;;;1999.90;999.90;;;3.80;93.20;;;;;;5033768;28;20494;-86
2023/05/18 01:41:21;;;;;;;1999.90;999.90;;;3.80;93.20;;;;;;5030770;28;20033;-84
2023/05/18 01:47:11;;;;;;;1999.90;999.90;;;3.90;93.40;;;;;;5031502;28;20032;-85
2023/05/18 01:50:16;;;;;;;1999.90;999.90;;;3.90;93.40;;;;;;5045557;28;20083;-83
2023/05/18 01:55:56;;;;;;;1999.90;999.90;;;3.90;93.40;;;;;;5034966;28;20063;-86
2023/05/18 01:58:23;;;;;;;1999.90;999.90;;;3.80;93.50;;;;;;5036459;28;20052;-85
2023/05/18 02:00:50;;;;;;;1999.90;999.90;;;3.80;93.60;;;;;;5013949;28;20120;-85
2023/05/18 02:03:18;;;;;;;1999.90;999.90;;;3.80;93.90;;;;;;5029246;28;20033;-85
2023/05/18 02:09:08;;;;;;;1999.90;999.90;;;3.80;93.60;;;;;;5035398;28;20036;-85
2023/05/18 02:11:34;;;;;;;1999.90;999.90;;;3.80;93.60;;;;;;5029056;28;20111;-85
2023/05/18 02:14:00;;;;;;;1999.90;999.90;;;3.80;93.70;;;;;;5030056;28;20044;-84
2023/05/18 02:16:26;;;;;;;1999.90;999.90;;;3.70;93.70;;;;;;5031319;28;20035;-84
2023/05/18 02:18:53;;;;;;;1999.90;999.90;;;3.60;93.60;;;;;;5025765;28;20033;-85
2023/05/18 02:21:20;;;;;;;1999.90;999.90;;;3.60;93.70;;;;;;5030915;28;20115;-85
2023/05/18 02:23:48;;;;;;;1999.90;999.90;;;3.60;93.60;;;;;;5034609;28;20120;-85
2023/05/18 02:26:18;;;;;;;1999.90;999.90;;;3.70;93.70;;;;;;5029805;28;20033;-85
2023/05/18 02:28:44;;;;;;;1999.90;999.90;;;3.70;93.60;;;;;;5032143;28;20156;-86
2023/05/18 02:31:11;;;;;;;1999.90;999.90;;;3.60;93.70;;;;;;5032229;28;20505;-84
2023/05/18 02:33:40;;;;;;;1999.90;999.90;;;3.70;93.80;;;;;;5026789;28;20513;-84
2023/05/18 02:36:12;;;;;;;1999.90;999.90;;;3.60;93.90;;;;;;5037124;28;20534;-84
2023/05/18 02:38:45;;;;;;;1999.90;999.90;;;3.60;93.90;;;;;;5027506;28;20469;-85
2023/05/18 02:41:13;;;;;;;1999.90;999.90;;;3.70;93.90;;;;;;5023361;28;20029;-85
2023/05/18 02:43:40;;;;;;;1999.90;999.90;;;3.60;93.90;;;;;;5028369;28;20399;-85
2023/05/18 02:46:06;;;;;;;1999.90;999.90;;;3.70;93.90;;;;;;5031385;28;20032;-85
2023/05/18 02:48:32;;;;;;;1999.90;999.90;;;3.70;93.90;;;;;;5029070;28;20441;-86
2023/05/18 02:51:00;;;;;;;1999.90;999.90;;;3.70;94.00;;;;;;5032412;28;20168;-85
2023/05/18 02:53:31;;;;;;;1999.90;999.90;;;3.70;94.00;;;;;;5034585;28;20025;-85
2023/05/18 02:55:57;;;;;;;1999.90;999.90;;;3.70;94.00;;;;;;5015201;28;20505;-85
2023/05/18 02:58:28;;;;;;;1999.90;999.90;;;3.70;94.00;;;;;;5031233;28;20463;-84
2023/05/18 03:01:06;;;;;;;1999.90;999.90;;;3.70;93.90;;;;;;5028314;28;20037;-86
2023/05/18 03:03:35;;;;;;;1999.90;999.90;;;3.80;94.10;;;;;;5030216;28;20048;-85
2023/05/18 03:06:07;;;;;;;1999.90;999.90;;;3.70;93.70;;;;;;5028090;28;20034;-85
2023/05/18 03:08:35;;;;;;;1999.90;999.90;;;3.80;93.70;;;;;;5032834;28;20057;-85
2023/05/18 03:14:24;;;;;;;1999.90;999.90;;;3.70;93.50;;;;;;5046016;28;20382;-85
2023/05/18 03:23:14;;;;;;;1999.90;999.90;;;3.60;93.70;;;;;;5038057;28;20399;-86
2023/05/18 03:25:40;;;;;;;1999.90;999.90;;;3.60;93.50;;;;;;5029087;28;20115;-84
2023/05/18 03:28:08;;;;;;;1999.90;999.90;;;3.50;93.40;;;;;;5028788;28;20053;-85
2023/05/18 03:36:08;;;;;;;1999.90;999.90;;;3.60;93.80;;;;;;5036474;28;20074;-84
2023/05/18 03:38:54;;;;;;;1999.90;999.90;;;3.60;93.90;;;;;;5034804;28;20553;-85
2023/05/18 03:45:18;;;;;;;1999.90;999.90;;;3.50;93.90;;;;;;5046669;28;20594;-86
2023/05/18 03:47:54;;;;;;;1999.90;999.90;;;3.50;93.90;;;;;;5034825;28;20037;-85
2023/05/18 03:50:23;;;;;;;1999.90;999.90;;;3.60;94.10;;;;;;5031610;28;20038;-85
2023/05/18 03:52:51;;;;;;;1999.90;999.90;;;3.60;94.10;;;;;;5037420;28;20034;-85
2023/05/18 03:55:20;;;;;;;1999.90;999.90;;;3.60;93.90;;;;;;5041648;28;20021;-84
2023/05/18 04:01:04;;;;;;;1999.90;999.90;;;3.60;93.90;;;;;;5028031;28;20096;-85
2023/05/18 04:03:33;;;;;;;1999.90;999.90;;;3.70;93.80;;;;;;5035165;28;20022;-86
2023/05/18 04:06:15;;;;;;;1999.90;999.90;;;3.60;93.70;;;;;;5036527;28;20088;-84
2023/05/18 04:08:49;;;;;;;1999.90;999.90;;;3.70;93.90;;;;;;5030753;28;20038;-88
2023/05/18 04:11:16;;;;;;;1999.90;999.90;;;3.70;93.90;;;;;;5030436;28;20048;-86
2023/05/18 04:13:44;;;;;;;1999.90;999.90;;;3.70;93.70;;;;;;5030824;28;20034;-86
2023/05/18 04:16:24;;;;;;;1999.90;999.90;;;3.80;93.60;;;;;;5028237;28;20022;-84
2023/05/18 04:18:50;;;;;;;1999.90;999.90;;;3.80;93.50;;;;;;5028022;28;20104;-87
2023/05/18 04:21:18;;;;;;;1999.90;999.90;;;3.80;93.30;;;;;;5035688;28;20503;-85
2023/05/18 04:23:46;;;;;;;1999.90;999.90;;;3.90;93.30;;;;;;5030180;28;20033;-85
2023/05/18 04:26:12;;;;;;;1999.90;999.90;;;4.00;93.10;;;;;;5029416;28;20029;-86
2023/05/18 04:28:38;;;;;;;1999.90;999.90;;;4.00;93.10;;;;;;5031460;28;20140;-84
2023/05/18 04:31:04;;;;;;;1999.90;999.90;;;4.10;92.80;;;;;;5036962;28;20128;-86
2023/05/18 04:33:37;;;;;;;1999.90;999.90;;;4.10;92.80;;;;;;5032129;28;20022;-87
2023/05/18 04:36:04;;;;;;;1999.90;999.90;;;4.20;92.60;;;;;;5036493;28;20164;-87
2023/05/18 04:38:33;;;;;;;1999.90;999.90;;;4.30;92.60;;;;;;5016634;28;20092;-88
2023/05/18 04:41:20;;;;;;;1999.90;999.90;;;4.40;92.20;;;;;;5033208;28;20037;-84
2023/05/18 04:43:47;;;;;;;1999.90;999.90;;;4.40;92.20;;;;;;5027497;28;20044;-86
2023/05/18 04:46:15;;;;;;;1999.90;999.90;;;4.40;92.20;;;;;;5037749;28;20025;-88
2023/05/18 04:48:41;;;;;;;1999.90;999.90;;;4.50;92.00;;;;;;5024112;28;20029;-85
2023/05/18 04:51:07;;;;;;;1999.90;999.90;;;4.60;91.80;;;;;;5013614;28;20033;-87
2023/05/18 04:53:33;;;;;;;1999.90;999.90;;;4.60;91.40;;;;;;5026392;28;20026;-89
2023/05/18 04:55:59;;;;;;;1999.90;999.90;;;4.60;91.60;;;;;;5021834;28;20025;-88
2023/05/18 04:58:29;;;;;;;1999.90;999.90;;;4.60;91.20;;;;;;5023305;28;20037;-86
2023/05/18 05:00:55;;;;;;;1999.90;999.90;;;4.70;91.60;;;;;;5033277;28;20120;-87
2023/05/18 05:03:21;;;;;;;1999.90;999.90;;;4.80;91.40;;;;;;5016955;28;20084;-88
2023/05/18 05:05:46;;;;;;;1999.90;999.90;;;4.90;91.50;;;;;;5022958;28;20045;-87
2023/05/18 05:08:12;;;;;;;1999.90;999.90;;;5.00;91.20;;;;;;5024552;28;20411;-87
2023/05/18 05:10:38;;;;;;;1999.90;999.90;;;5.00;90.50;;;;;;5025067;28;20038;-86
2023/05/18 05:13:04;;;;;;;1999.90;999.90;;;5.10;90.80;;;;;;5025070;28;20112;-89
2023/05/18 05:15:30;;;;;;;1999.90;999.90;;;5.20;90.70;;;;;;5019997;28;20042;-89
2023/05/18 05:17:57;;;;;;;1999.90;999.90;;;5.30;90.60;;;;;;5020456;28;20022;-86
2023/05/18 05:20:23;;;;;;;1999.90;999.90;;;5.40;90.50;;;;;;5026321;28;20118;-90
2023/05/18 05:22:48;;;;;;;1999.90;999.90;;;5.40;90.40;;;;;;5021146;28;20110;-87
2023/05/18 05:25:14;;;;;;;1999.90;999.90;;;5.50;90.50;;;;;;5030260;28;20116;-91
2023/05/18 05:27:40;;;;;;;1999.90;999.90;;;5.50;90.60;;;;;;5028134;28;20056;-89
2023/05/18 05:30:06;;;;;;;1999.90;999.90;;;5.60;90.10;;;;;;5025806;28;20051;-88
2023/05/18 05:32:32;;;;;;;1999.90;999.90;;;5.60;90.20;;;;;;5027702;28;20036;-87
2023/05/18 05:34:58;;;;;;;1999.90;999.90;;;5.70;90.50;;;;;;5033641;28;20034;-89
2023/05/18 05:37:23;;;;;;;1999.90;999.90;;;5.70;90.60;;;;;;5012245;28;20049;-88
2023/05/18 05:39:49;;;;;;;1999.90;999.90;;;5.70;90.50;;;;;;5022204;28;20034;-91
2023/05/18 05:42:15;;;;;;;1999.90;999.90;;;5.80;90.40;;;;;;5018575;28;20091;-87
2023/05/18 05:44:41;;;;;;;1999.90;999.90;;;5.80;90.00;;;;;;5027358;28;20113;-88
2023/05/18 05:47:07;;;;;;;1999.90;999.90;;;5.90;90.20;;;;;;5018890;28;20465;-90
2023/05/18 05:49:34;;;;;;;1999.90;999.90;;;6.00;90.30;;;;;;5028084;28;20042;-87
2023/05/18 05:52:00;;;;;;;1999.90;999.90;;;6.10;90.00;;;;;;5025916;28;20048;-87
2023/05/18 05:54:26;;;;;;;1999.90;999.90;;;6.30;89.30;;;;;;5026040;28;20036;-88
2023/05/18 05:56:51;;;;;;;1999.90;999.90;;;6.50;90.10;;;;;;5030502;28;20044;-88
2023/05/18 05:59:17;;;;;;;1999.90;999.90;;;6.60;88.80;;;;;;5029413;28;20037;-89
2023/05/18 06:01:43;;;;;;;1999.90;999.90;;;6.70;89.30;;;;;;5026483;28;20029;-86
2023/05/18 06:04:09;;;;;;;1999.90;999.90;;;6.70;88.50;;;;;;5024471;28;20022;-90
2023/05/18 06:06:37;;;;;;;1999.90;999.90;;;6.90;89.30;;;;;;5027980;28;20040;-89
2023/05/18 06:09:03;;;;;;;1999.90;999.90;;;7.00;87.60;;;;;;5029392;28;20492;-88
2023/05/18 06:11:30;;;;;;;1999.90;999.90;;;7.20;88.60;;;;;;5028962;28;20050;-91
2023/05/18 06:13:56;;;;;;;1999.90;999.90;;;7.30;87.60;;;;;;5031638;28;20565;-89
2023/05/18 06:16:23;;;;;;;1999.90;999.90;;;7.40;87.60;;;;;;5035247;28;20053;-87
2023/05/18 06:18:49;;;;;;;1999.90;999.90;;;7.50;86.00;;;;;;5028209;28;20058;-87
2023/05/18 06:21:15;;;;;;;1999.90;999.90;;;7.50;86.40;;;;;;5014483;28;20126;-87
2023/05/18 06:23:41;;;;;;;1999.90;999.90;;;7.60;86.00;;;;;;5030850;28;20550;-88
2023/05/18 06:26:07;;;;;;;1999.90;999.90;;;7.60;85.80;;;;;;5030047;28;20038;-90
2023/05/18 06:28:33;;;;;;;1999.90;999.90;;;7.60;86.50;;;;;;5029574;28;20053;-90
2023/05/18 06:30:59;;;;;;;1999.90;999.90;;;7.50;86.40;;;;;;5027790;28;20131;-88
2023/05/18 06:33:25;;;;;;;1999.90;999.90;;;7.70;85.60;;;;;;5012507;28;20040;-87
2023/05/18 06:35:51;;;;;;;1999.90;999.90;;;7.80;84.70;;;;;;5027847;28;20037;-87
2023/05/18 06:38:17;;;;;;;1999.90;999.90;;;8.10;85.90;;;;;;5028429;28;20413;-90
2023/05/18 06:40:48;;;;;;;1999.90;999.90;;;8.10;83.80;;;;;;5031280;28;20037;-90
2023/05/18 06:43:14;;;;;;;1999.90;999.90;;;8.30;82.50;;;;;;5023014;28;20080;-88
2023/05/18 06:45:40;;;;;;;1999.90;999.90;;;8.30;82.90;;;;;;5028232;28;20444;-87
2023/05/18 06:48:05;;;;;;;1999.90;999.90;;;8.40;83.20;;;;;;5029324;28;20033;-88
2023/05/18 06:50:31;;;;;;;1999.90;999.90;;;8.70;83.40;;;;;;5022172;28;20049;-87
2023/05/18 06:52:56;;;;;;;1999.90;999.90;;;8.90;82.10;;;;;;5029003;28;20167;-90
2023/05/18 06:55:22;;;;;;;1999.90;999.90;;;8.90;81.20;;;;;;5030312;28;20084;-89
2023/05/18 06:57:48;;;;;;;1999.90;999.90;;;9.00;81.60;;;;;;5024223;28;20127;-89
2023/05/18 07:00:14;;;;;;;1999.90;999.90;;;9.10;80.90;;;;;;5026001;28;20143;-87
2023/05/18 07:02:43;;;;;;;1999.90;999.90;;;9.10;79.40;;;;;;5020359;28;20116;-88
2023/05/18 07:05:08;;;;;;;1999.90;999.90;;;9.20;81.20;;;;;;5030302;28;20025;-86
2023/05/18 07:07:36;;;;;;;1999.90;999.90;;;9.30;79.00;;;;;;5034026;28;20512;-89
2023/05/18 07:10:03;;;;;;;1999.90;999.90;;;9.50;81.20;;;;;;5009980;28;20492;-88
2023/05/18 07:12:29;;;;;;;1999.90;999.90;;;9.60;79.00;;;;;;5024719;28;20491;-89
2023/05/18 07:14:54;;;;;;;1999.90;999.90;;;9.70;77.80;;;;;;5028288;28;20083;-91
2023/05/18 07:17:21;;;;;;;1999.90;999.90;;;9.90;78.70;;;;;;5026601;28;20038;-89
2023/05/18 07:19:47;;;;;;;1999.90;999.90;;;9.90;76.60;;;;;;5018682;28;20037;-89
2023/05/18 07:22:13;;;;;;;1999.90;999.90;;;10.10;76.80;;;;;;5029826;28;20037;-90
2023/05/18 07:24:39;;;;;;;1999.90;999.90;;;10.00;76.10;;;;;;5030647;28;20106;-88
2023/05/18 07:27:05;;;;;;;1999.90;999.90;;;10.00;76.70;;;;;;5030803;28;20061;-89
2023/05/18 07:29:31;;;;;;;1999.90;999.90;;;10.20;75.10;;;;;;5028946;28;20076;-87
2023/05/18 07:31:56;;;;;;;1999.90;999.90;;;10.20;75.10;;;;;;5028278;28;20511;-88
2023/05/18 07:34:26;;;;;;;1999.90;999.90;;;10.40;74.40;;;;;;5028625;28;20072;-89
2023/05/18 07:36:52;;;;;;;1999.90;999.90;;;10.70;75.00;;;;;;5030571;28;20033;-89
2023/05/18 07:39:18;;;;;;;1999.90;999.90;;;10.70;74.40;;;;;;5033691;28;20409;-85
2023/05/18 07:41:48;;;;;;;1999.90;999.90;;;10.80;72.10;;;;;;5033749;28;20045;-86
2023/05/18 07:44:16;;;;;;;1999.90;999.90;;;10.90;71.80;;;;;;5024328;28;20037;-83
2023/05/18 07:46:42;;;;;;;1999.90;999.90;;;10.80;70.10;;;;;;5026894;28;20038;-85
2023/05/18 07:49:08;;;;;;;1999.90;999.90;;;11.00;71.90;;;;;;5029609;28;20117;-87
2023/05/18 07:51:34;;;;;;;1999.90;999.90;;;11.20;71.50;;;;;;5028596;28;20100;-87
2023/05/18 07:54:00;;;;;;;1999.90;999.90;;;11.40;71.00;;;;;;5028748;28;20037;-86
2023/05/18 07:56:25;;;;;;;1999.90;999.90;;;11.50;70.50;;;;;;5029429;28;20096;-83
2023/05/18 07:58:51;;;;;;;1999.90;999.90;;;11.60;70.10;;;;;;5027106;28;20415;-88
2023/05/18 08:01:18;;;;;;;1999.90;999.90;;;11.50;69.80;;;;;;5032418;28;20033;-84
2023/05/18 08:03:43;;;;;;;1999.90;999.90;;;11.40;68.10;;;;;;5030220;28;20040;-88
2023/05/18 08:06:09;;;;;;;1999.90;999.90;;;11.60;66.20;;;;;;5015896;28;20037;-85
2023/05/18 08:08:36;;;;;;;1999.90;999.90;;;11.40;67.00;;;;;;5027811;28;20041;-86
2023/05/18 08:11:03;;;;;;;1999.90;999.90;;;11.30;67.40;;;;;;5027670;28;20084;-87
2023/05/18 08:13:29;;;;;;;1999.90;999.90;;;11.40;68.60;;;;;;5032980;28;20095;-85
2023/05/18 08:15:55;;;;;;;1999.90;999.90;;;11.70;67.30;;;;;;5033779;28;20472;-87
2023/05/18 08:18:21;;;;;;;1999.90;999.90;;;11.80;67.40;;;;;;5033918;28;20071;-81
2023/05/18 08:20:48;;;;;;;1999.90;999.90;;;12.10;67.00;;;;;;5022858;28;20033;-86
2023/05/18 08:23:14;;;;;;;1999.90;999.90;;;12.10;66.90;;;;;;5031116;28;20033;-87
2023/05/18 08:25:40;;;;;;;1999.90;999.90;;;12.20;66.40;;;;;;5036568;28;20411;-85
2023/05/18 08:28:07;;;;;;;1999.90;999.90;;;12.20;65.80;;;;;;5033644;28;20144;-86
2023/05/18 08:30:33;;;;;;;1999.90;999.90;;;12.30;64.60;;;;;;5033390;28;20060;-86
2023/05/18 08:33:00;;;;;;;1999.90;999.90;;;12.20;64.60;;;;;;5033010;28;20034;-86
2023/05/18 08:35:26;;;;;;;1999.90;999.90;;;12.00;65.90;;;;;;5034351;28;20029;-88
2023/05/18 08:37:53;;;;;;;1999.90;999.90;;;12.00;64.50;;;;;;5028244;28;20029;-86
2023/05/18 08:40:19;;;;;;;1999.90;999.90;;;12.20;65.80;;;;;;5038626;28;20039;-81
2023/05/18 08:43:08;;;;;;;1999.90;999.90;;;12.40;65.80;;;;;;5034249;28;20052;-88
2023/05/18 08:45:37;;;;;;;1999.90;999.90;;;13.10;64.20;;;;;;5034818;28;20565;-85
2023/05/18 08:48:04;;;;;;;1999.90;999.90;;;13.00;63.70;;;;;;5033631;28;20109;-84
2023/05/18 08:50:31;;;;;;;1999.90;999.90;;;13.00;61.40;;;;;;5031868;28;20038;-84
2023/05/18 08:53:01;;;;;;;1999.90;999.90;;;12.70;63.30;;;;;;5035734;28;20037;-83
2023/05/18 08:55:28;;;;;;;1999.90;999.90;;;12.30;63.40;;;;;;5032615;28;20112;-85
2023/05/18 08:57:56;;;;;;;1999.90;999.90;;;12.70;62.30;;;;;;5032523;28;20404;-85
2023/05/18 09:00:25;;;;;;;1999.90;999.90;;;13.00;60.50;;;;;;5032349;28;20036;-86
2023/05/18 09:02:51;;;;;;;1999.90;999.90;;;13.20;59.70;;;;;;5030448;28;20033;-89
2023/05/18 09:05:19;;;;;;;1999.90;999.90;;;13.40;58.70;;;;;;5029925;28;20107;-84
2023/05/18 09:07:46;;;;;;;1999.90;999.90;;;13.50;59.50;;;;;;5037959;28;20134;-86
2023/05/18 09:10:14;;;;;;;1999.90;999.90;;;13.70;60.30;;;;;;5034356;28;20087;-86
2023/05/18 09:12:45;;;;;;;1999.90;999.90;;;13.90;59.40;;;;;;5035526;28;20025;-88
2023/05/18 09:15:13;;;;;;;1999.90;999.90;;;13.80;58.10;;;;;;5034533;28;20439;-88
2023/05/18 09:17:39;;;;;;;1999.90;999.90;;;13.70;59.10;;;;;;5034281;28;20026;-82
2023/05/18 09:20:05;;;;;;;1999.90;999.90;;;13.60;57.90;;;;;;5032807;28;20026;-88
2023/05/18 09:22:34;;;;;;;1999.90;999.90;;;13.60;58.00;;;;;;5039377;28;20790;-87
2023/05/18 09:25:01;;;;;;;1999.90;999.90;;;13.10;60.00;;;;;;5030302;28;20042;-88
2023/05/18 09:27:28;;;;;;;1999.90;999.90;;;13.40;60.40;;;;;;5033283;28;20514;-87
2023/05/18 09:29:55;;;;;;;1999.90;999.90;;;13.20;59.20;;;;;;5026728;28;20088;-87
2023/05/18 09:32:22;;;;;;;1999.90;999.90;;;13.80;59.50;;;;;;5033922;28;20018;-85
2023/05/18 09:34:48;;;;;;;1999.90;999.90;;;14.40;57.80;;;;;;5029382;28;20030;-86
2023/05/18 09:37:19;;;;;;;1999.90;999.90;;;14.60;60.60;;;;;;5024674;28;20029;-89
2023/05/18 09:39:56;;;;;;;;;;;14.40;55.90;;;;;;5031353;28;20029;-88
2023/05/18 09:42:26;;;;;;;1999.90;999.90;;;14.60;55.80;;;;;;5028825;28;20003;-83
2023/05/18 09:44:53;;;;;;;1999.90;999.90;;;14.30;55.50;;;;;;5025096;28;20542;-87
2023/05/18 09:47:18;;;;;;;1999.90;999.90;;;14.20;57.10;;;;;;5012230;28;20563;-87
2023/05/18 09:49:45;;;;;;;1999.90;999.90;;;13.90;57.40;;;;;;5034288;28;20091;-86
2023/05/18 09:52:11;;;;;;;1999.90;999.90;;;14.60;58.90;;;;;;5032322;28;20056;-82
2023/05/18 09:54:36;;;;;;;1999.90;999.90;;;14.90;55.60;;;;;;5026705;28;20479;-85
2023/05/18 09:57:03;;;;;;;1999.90;999.90;;;14.70;55.40;;;;;;5032643;28;20045;-85
2023/05/18 09:59:30;;;;;;;1999.90;999.90;;;14.80;54.60;;;;;;5029802;28;20021;-82
2023/05/18 10:02:07;;;;;;;1999.90;999.90;;;15.20;55.50;;;;;;5030328;28;20048;-86
2023/05/18 10:04:42;;;;;;;1999.90;999.90;;;16.00;55.80;;;;;;5030836;28;20037;-87
2023/05/18 10:07:16;;;;;;;1999.90;999.90;;;16.30;53.60;;;;;;5029539;28;20068;-84
2023/05/18 10:09:44;;;;;;;1999.90;999.90;;;16.90;51.70;;;;;;5033562;28;20035;-82
2023/05/18 10:12:21;;;;;;;1999.90;999.90;;;17.40;50.80;;;;;;5025786;28;20053;-85
2023/05/18 10:14:48;;;;;;;1999.90;999.90;;;16.80;49.30;;;;;;5027217;28;20036;-87
2023/05/18 10:17:15;;;;;;;1999.90;999.90;;;16.60;49.90;;;;;;5030396;28;20029;-86
2023/05/18 10:19:41;;;;;;;1999.90;999.90;;;16.60;48.90;;;;;;5030572;28;20025;-85
2023/05/18 10:22:08;;;;;;;1999.90;999.90;;;16.70;52.80;;;;;;5037570;28;20033;-82
2023/05/18 10:24:37;;;;;;;1999.90;999.90;;;16.10;49.70;;;;;;5036509;28;20061;-86
2023/05/18 10:27:08;;;;;;;1999.90;999.90;;;15.80;51.00;;;;;;5027042;28;20041;-86
2023/05/18 10:29:36;;;;;;;1999.90;999.90;;;15.70;50.20;;;;;;5029415;28;20034;-91
2023/05/18 10:32:04;;;;;;;1999.90;999.90;;;16.10;51.20;;;;;;5030515;28;20046;-88
2023/05/18 10:34:32;;;;;;;1999.90;999.90;;;16.30;52.30;;;;;;5031980;28;20044;-88
2023/05/18 10:37:02;;;;;;;1999.90;999.90;;;16.20;50.80;;;;;;5033351;28;20043;-90
2023/05/18 10:39:29;;;;;;;1999.90;999.90;;;16.40;51.50;;;;;;5033437;28;20040;-91
2023/05/18 10:41:57;;;;;;;1999.90;999.90;;;15.80;52.60;;;;;;5033518;28;20115;-90
2023/05/18 10:44:25;;;;;;;1999.90;999.90;;;15.60;52.70;;;;;;5027954;28;20029;-90
2023/05/18 10:46:53;;;;;;;1999.90;999.90;;;15.20;51.50;;;;;;5029550;28;20294;-89
2023/05/18 10:49:24;;;;;;;1999.90;999.90;;;15.80;53.40;;;;;;5036495;28;20475;-88
2023/05/18 10:51:51;;;;;;;;;;;15.90;51.30;;;;;;5034624;28;20045;-89
2023/05/18 10:54:18;;;;;;;1999.90;999.90;;;15.80;51.20;;;;;;5027925;28;20415;-91
2023/05/18 10:56:47;;;;;;;1999.90;999.90;;;15.40;52.20;;;;;;5028840;28;20727;-88
2023/05/18 10:59:14;;;;;;;1999.90;999.90;;;15.30;51.40;;;;;;5024222;28;20122;-91
2023/05/18 11:01:41;;;;;;;1999.90;999.90;;;15.00;53.50;;;;;;5027231;28;20084;-86
2023/05/18 11:04:10;;;;;;;1999.90;999.90;;;15.30;52.20;;;;;;5028759;28;20041;-89
2023/05/18 11:06:37;;;;;;;1999.90;999.90;;;15.40;51.30;;;;;;5025551;28;20036;-88
2023/05/18 11:09:03;;;;;;;1999.90;999.90;;;15.00;51.60;;;;;;5026505;28;20033;-88
2023/05/18 11:11:29;;;;;;;1999.90;999.90;;;14.50;52.80;;;;;;5029117;28;20131;-90
2023/05/18 11:14:02;;;;;;;1999.90;999.90;;;14.10;54.70;;;;;;5020675;28;20034;-85
2023/05/18 11:16:35;;;;;;;1999.90;999.90;;;14.40;54.60;;;;;;5029945;28;20372;-87
2023/05/18 11:19:05;;;;;;;1999.90;999.90;;;15.40;55.90;;;;;;5028196;28;20052;-85
2023/05/18 11:21:41;;;;;;;1999.90;999.90;;;15.60;51.30;;;;;;5025621;28;20025;-87
2023/05/18 11:24:35;;;;;;;1999.90;999.90;;;15.10;51.40;;;;;;5039934;28;20034;-89
2023/05/18 11:27:15;;;;;;;1999.90;999.90;;;16.00;51.70;;;;;;5026527;28;20038;-89
2023/05/18 11:29:45;;;;;;;1999.90;999.90;;;17.90;47.80;;;;;;5025743;28;20902;-89
2023/05/18 11:32:32;;;;;;;1999.90;999.90;;;18.20;43.50;;;;;;5027977;28;20291;-84
2023/05/18 11:34:58;;;;;;;1999.90;999.90;;;17.40;44.70;;;;;;5033504;28;20034;-88
2023/05/18 11:37:43;;;;;;;1999.90;999.90;;;17.60;48.40;;;;;;5028746;28;20037;-84
2023/05/18 11:40:29;;;;;;;1999.90;999.90;;;18.10;46.90;;;;;;5027642;28;20495;-81
2023/05/18 11:42:58;;;;;;;1999.90;999.90;;;17.90;43.70;;;;;;5024471;28;20053;-86
2023/05/18 11:45:24;;;;;;;1999.90;999.90;;;16.40;45.80;;;;;;5020696;28;20039;-85
2023/05/18 11:48:00;;;;;;;1999.90;999.90;;;15.50;47.00;;;;;;5024170;28;20037;-87
2023/05/18 11:50:26;;;;;;;1999.90;999.90;;;15.10;51.10;;;;;;5022503;28;20026;-86
2023/05/18 11:52:52;;;;;;;1999.90;999.90;;;14.60;52.20;;;;;;5027129;28;20071;-86
2023/05/18 11:55:20;;;;;;;1999.90;999.90;;;14.50;53.70;;;;;;5021841;28;20107;-82
2023/05/18 11:57:52;;;;;;;1999.90;999.90;;;14.30;52.70;;;;;;5021437;28;20030;-85
2023/05/18 12:00:19;;;;;;;1999.90;999.90;;;14.60;54.10;;;;;;5034123;28;20483;-84
2023/05/18 12:02:46;;;;;;;1999.90;999.90;;;14.70;53.10;;;;;;5035462;28;20071;-81
2023/05/18 12:05:12;;;;;;;1999.90;999.90;;;14.50;52.80;;;;;;5033781;28;20554;-83
2023/05/18 12:07:39;;;;;;;1999.90;999.90;;;14.40;52.90;;;;;;5028413;28;20037;-86
2023/05/18 12:10:16;;;;;;;1999.90;999.90;;;14.50;54.30;;;;;;5029897;28;20029;-82
2023/05/18 12:12:42;;;;;;;1999.90;999.90;;;14.40;53.60;;;;;;5030845;28;20033;-85
2023/05/18 12:15:10;;;;;;;1999.90;999.90;;;14.20;52.40;;;;;;5027336;28;20490;-86
2023/05/18 12:17:44;;;;;;;1999.90;999.90;;;14.40;52.60;;;;;;5032805;28;20044;-85
2023/05/18 12:20:14;;;;;;;1999.90;999.90;;;14.60;53.40;;;;;;5032776;28;20041;-84
2023/05/18 12:22:45;;;;;;;1999.90;999.90;;;14.80;50.60;;;;;;5034609;28;20123;-87
2023/05/18 12:25:12;;;;;;;1999.90;999.90;;;14.60;54.00;;;;;;5031137;28;20033;-85
2023/05/18 12:27:40;;;;;;;1999.90;999.90;;;15.00;53.40;;;;;;5032480;28;20044;-83
2023/05/18 12:30:12;;;;;;;1999.90;999.90;;;15.10;51.40;;;;;;5031879;28;20045;-85
2023/05/18 12:32:38;;;;;;;1999.90;999.90;;;14.50;51.40;;;;;;5029217;28;20034;-85
2023/05/18 12:35:05;;;;;;;1999.90;999.90;;;14.40;54.20;;;;;;5032871;28;20495;-84
2023/05/18 12:37:31;;;;;;;1999.90;999.90;;;14.30;54.00;;;;;;5034543;28;20128;-84
2023/05/18 12:39:58;;;;;;;1999.90;999.90;;;14.20;52.70;;;;;;5034009;28;20092;-85
2023/05/18 12:42:24;;;;;;;1999.90;999.90;;;14.00;55.20;;;;;;5029833;28;20550;-86
2023/05/18 12:44:50;;;;;;;1999.90;999.90;;;14.10;57.20;;;;;;5026038;28;20041;-84